Terminal Aerodrome Forecast
Issued by NWS

Home | Current Version | Previous Version | Text Only | Print | Product List | Glossary On
Versions: 1 2 3 4 5 6 7 8 9 10 11 12 13 14 15 16 17 18 19
000
FTUS44 KTSA 051405 AAA
TAFMLC
TAF AMD
KMLC 051405Z 0514/0612 00000KT 1/4SM FG VV002
     FM051600 12005KT P6SM SCT030 BKN080
     FM052100 10007KT P6SM VCSH BKN025
     FM060000 11006KT 5SM -RA BR OVC015
     FM060800 33004KT 4SM BR OVC007=

USA.gov is the U.S. government's official web portal to all federal, state and local government web resources and services.